Time;durP1;ratioP1;P1;durP2;ratioP2;P2;SDS_P1;SDS_P2;PMS_P1;PMS_P2;Temp;Humidity;BMP_temperature;BMP_pressure;BME280_temperature;BME280_humidity;BME280_pressure;Samples;Min_cycle;Max_cycle;Signal;HPM_P1;HPM_P2
2023/01/12 02:26:38;;;;;;;0.17;0.17;;;;;;;6.45;92.79;100366.88;9922119;29;20142;-90
2023/01/12 02:32:51;;;;;;;0.38;0.38;;;;;;;6.55;93.04;100370.63;9988678;24;20051;-90
2023/01/12 02:38:58;;;;;;;0.10;0.10;;;;;;;6.69;93.13;100365.78;9903212;29;20058;-89
2023/01/12 02:51:14;;;;;;;;;;;;;;;;;;;;;
2023/01/12 02:57:21;;;;;;;0.43;0.35;;;;;;;6.67;93.33;100363.16;9914421;29;20067;-88
2023/01/12 03:08:30;;;;;;;2.05;0.93;;;;;;;6.85;93.20;100341.91;9930615;29;20051;-87
2023/01/12 03:13:37;;;;;;;0.43;0.43;;;;;;;6.88;93.24;100323.78;9918826;29;20508;-88
2023/01/12 03:18:53;;;;;;;0.35;0.35;;;;;;;6.87;93.42;100322.00;9926672;29;20062;-88
2023/01/12 03:24:25;;;;;;;0.20;0.20;;;;;;;6.91;93.32;100315.16;9925701;29;20570;-88
2023/01/12 03:29:35;;;;;;;0.20;0.20;;;;;;;6.93;93.63;100312.59;9920488;29;20459;-87
2023/01/12 03:35:04;;;;;;;0.30;0.30;;;;;;;6.88;93.69;100312.50;9923329;29;20058;-88
2023/01/12 03:40:34;;;;;;;;;;;;;;;;;;;;;
2023/01/12 04:12:12;;;;;;;0.10;0.10;;;;;;;6.92;95.33;100244.06;9886949;29;20055;-88
2023/01/12 04:17:53;;;;;;;3.83;1.02;;;;;;;6.95;95.36;100233.72;9893841;29;20063;-85
2023/01/12 04:22:56;;;;;;;1.05;0.60;;;;;;;6.93;95.88;100224.97;9912281;29;20055;-84
2023/01/12 04:28:02;;;;;;;0.95;0.85;;;;;;;6.90;96.04;100214.50;9911151;29;20108;-84
2023/01/12 04:33:08;;;;;;;1.73;0.43;;;;;;;6.87;96.11;100210.09;9922760;29;20133;-85
2023/01/12 04:38:10;;;;;;;1.55;0.52;;;;;;;6.89;96.63;100202.31;9931092;29;20075;-83
2023/01/12 04:43:12;;;;;;;0.55;0.25;;;;;;;6.86;96.82;100177.13;9926175;29;20550;-83
2023/01/12 04:48:15;;;;;;;0.20;0.20;;;;;;;6.87;96.90;100168.44;9918205;29;20059;-82
2023/01/12 04:53:16;;;;;;;0.10;0.10;;;;;;;6.88;97.25;100159.81;9917969;29;20059;-83
2023/01/12 04:58:18;;;;;;;0.93;0.43;;;;;;;6.86;97.20;100152.81;9922981;29;20066;-84
2023/01/12 05:03:20;;;;;;;0.75;0.30;;;;;;;6.87;97.50;100152.84;9902430;29;20051;-84
2023/01/12 05:13:42;;;;;;;0.17;0.17;;;;;;;6.89;97.74;100138.16;9922743;29;20047;-84
2023/01/12 05:18:44;;;;;;;0.38;0.38;;;;;;;6.92;98.00;100123.44;9932559;29;20558;-84
2023/01/12 05:23:46;;;;;;;0.20;0.20;;;;;;;6.92;97.86;100108.72;9920367;29;20087;-83
2023/01/12 05:28:49;;;;;;;0.85;0.40;;;;;;;6.97;98.34;100101.88;9930252;29;20103;-84
2023/01/12 05:33:51;;;;;;;0.40;0.10;;;;;;;6.96;98.13;100088.81;9920762;29;20063;-83
2023/01/12 05:38:52;;;;;;;0.00;0.00;;;;;;;6.96;98.20;100063.66;9914299;29;20085;-83
2023/01/12 05:43:54;;;;;;;0.10;0.10;;;;;;;6.99;98.49;100053.31;9928674;29;20532;-83
2023/01/12 05:48:56;;;;;;;0.15;0.15;;;;;;;7.01;98.47;100043.81;9927710;29;20055;-85
2023/01/12 05:53:58;;;;;;;0.90;0.50;;;;;;;7.02;98.44;100019.53;9914704;29;20687;-86
2023/01/12 05:59:03;;;;;;;0.10;0.10;;;;;;;7.04;98.54;100007.44;9918553;29;20104;-84
2023/01/12 06:04:04;;;;;;;0.10;0.10;;;;;;;7.03;98.45;99997.00;9928431;29;20059;-84
2023/01/12 06:09:06;;;;;;;0.17;0.17;;;;;;;7.04;98.43;99997.03;9933885;29;20055;-84
2023/01/12 06:14:09;;;;;;;0.20;0.20;;;;;;;6.99;98.29;99979.56;9912059;29;20048;-85
2023/01/12 06:19:11;;;;;;;0.10;0.10;;;;;;;6.98;98.28;99973.50;9927893;29;20450;-85
2023/01/12 06:24:13;;;;;;;0.15;0.15;;;;;;;6.97;98.26;99955.25;9916286;29;20078;-86
2023/01/12 06:29:15;;;;;;;0.52;0.25;;;;;;;7.00;98.37;99918.84;9910176;29;20511;-83
2023/01/12 06:34:17;;;;;;;0.55;0.22;;;;;;;6.94;98.36;99898.78;9918260;29;20073;-86
2023/01/12 06:39:18;;;;;;;0.22;0.22;;;;;;;6.93;98.52;99876.22;9916554;29;20105;-85
2023/01/12 06:44:20;;;;;;;0.10;0.10;;;;;;;6.91;98.31;99849.28;9910363;29;20138;-85
2023/01/12 06:49:22;;;;;;;0.10;0.10;;;;;;;6.90;98.53;99843.22;9917730;29;20069;-84
2023/01/12 06:54:23;;;;;;;0.00;0.00;;;;;;;6.87;98.06;99844.88;9924138;29;20046;-84
2023/01/12 06:59:25;;;;;;;0.45;0.25;;;;;;;6.86;98.19;99837.91;9920037;29;20659;-84
2023/01/12 07:04:26;;;;;;;0.55;0.28;;;;;;;6.86;98.01;99823.19;9931962;29;20051;-84
2023/01/12 07:09:28;;;;;;;0.10;0.10;;;;;;;6.87;97.88;99829.25;9918105;29;20113;-86
2023/01/12 07:14:30;;;;;;;0.10;0.10;;;;;;;6.81;97.93;99814.41;9901026;29;20418;-84
2023/01/12 07:19:31;;;;;;;0.20;0.20;;;;;;;6.82;98.03;99802.31;9913432;29;20050;-84
2023/01/12 07:24:33;;;;;;;0.20;0.20;;;;;;;6.79;98.16;99818.72;9923158;29;20547;-85
2023/01/12 07:29:35;;;;;;;0.00;0.00;;;;;;;6.79;98.42;99829.13;9916566;29;20066;-83
2023/01/12 07:34:37;;;;;;;0.10;0.10;;;;;;;6.83;98.22;99817.03;9922139;29;20051;-84
2023/01/12 07:39:38;;;;;;;0.30;0.15;;;;;;;6.84;98.55;99801.44;9923188;29;20053;-84
2023/01/12 07:44:40;;;;;;;0.10;0.10;;;;;;;6.90;98.86;99803.28;9909351;29;20411;-83
2023/01/12 07:49:42;;;;;;;0.00;0.00;;;;;;;6.95;98.90;99805.97;9928705;29;20514;-84
2023/01/12 07:54:44;;;;;;;0.00;0.00;;;;;;;7.02;99.26;99813.03;9907382;29;20051;-84
2023/01/12 07:59:45;;;;;;;1.35;0.40;;;;;;;7.05;99.30;99802.66;9925447;29;20055;-83
2023/01/12 08:04:47;;;;;;;0.25;0.20;;;;;;;7.10;99.28;99826.16;9920076;29;20369;-84
2023/01/12 08:09:48;;;;;;;1.10;0.32;;;;;;;7.17;99.55;99805.44;9927679;29;20046;-85
2023/01/12 08:14:50;;;;;;;0.28;0.22;;;;;;;7.26;99.67;99808.19;9923667;29;20456;-83
2023/01/12 08:20:00;;;;;;;0.00;0.00;;;;;;;7.32;99.75;99811.75;9918465;29;20227;-84
2023/01/12 08:25:08;;;;;;;;;;;;;;;7.39;99.92;99810.97;9890445;29;20858;-86
2023/01/12 08:30:14;;;;;;;0.10;0.10;;;;;;;7.47;99.79;99809.34;9911085;29;20008;-85
2023/01/12 08:35:21;;;;;;;0.10;0.10;;;;;;;7.56;100.00;99826.84;9888585;29;20094;-86
2023/01/12 08:41:30;;;;;;;0.05;0.05;;;;;;;7.64;100.00;99811.31;9886147;29;20348;-86
2023/01/12 08:45:45;;;;;;;0.00;0.00;;;;;;;7.69;100.00;99807.91;9900076;29;20047;-86
2023/01/12 08:50:47;;;;;;;0.20;0.20;;;;;;;7.77;100.00;99815.81;9918308;29;20103;-86
2023/01/12 08:55:52;;;;;;;0.65;0.30;;;;;;;7.86;100.00;99810.72;9917502;29;20197;-86
2023/01/12 09:00:55;;;;;;;0.63;0.50;;;;;;;7.89;100.00;99820.31;9931757;29;20481;-86
2023/01/12 09:05:57;;;;;;;0.10;0.10;;;;;;;7.90;100.00;99814.28;9907317;29;20062;-85
2023/01/12 09:11:04;;;;;;;0.38;0.38;;;;;;;7.91;100.00;99814.28;9936636;29;20065;-82
2023/01/12 09:16:10;;;;;;;0.20;0.20;;;;;;;7.99;100.00;99827.41;9950853;29;20066;-82
2023/01/12 09:21:16;;;;;;;0.20;0.20;;;;;;;8.05;100.00;99826.63;9946702;29;20059;-82
2023/01/12 09:26:22;;;;;;;0.10;0.10;;;;;;;8.11;100.00;99824.06;9925800;29;20047;-84
2023/01/12 09:31:26;;;;;;;0.50;0.20;;;;;;;8.15;100.00;99833.66;9918507;29;20067;-86
2023/01/12 09:36:33;;;;;;;0.15;0.15;;;;;;;8.18;100.00;99831.13;9902895;29;20087;-86
2023/01/12 09:47:25;;;;;;;0.10;0.10;;;;;;;8.32;100.00;99855.59;9924166;29;20087;-85
2023/01/12 09:52:34;;;;;;;0.10;0.10;;;;;;;8.34;100.00;99849.53;9920899;29;20106;-84
2023/01/12 09:58:02;;;;;;;0.30;0.30;;;;;;;8.34;100.00;99863.44;9925959;29;20059;-85
2023/01/12 10:03:10;;;;;;;0.10;0.10;;;;;;;8.34;100.00;99886.06;9936514;29;20431;-83
2023/01/12 10:08:32;;;;;;;0.10;0.10;;;;;;;8.40;100.00;99870.47;9917849;29;20436;-84
2023/01/12 10:13:52;;;;;;;0.10;0.10;;;;;;;8.49;100.00;99874.06;9925906;29;20149;-85
2023/01/12 10:19:01;;;;;;;0.43;0.17;;;;;;;8.49;100.00;99874.06;9905307;29;20055;-85
2023/01/12 10:24:11;;;;;;;0.35;0.35;;;;;;;8.74;100.00;99878.72;9914695;29;20153;-86
2023/01/12 10:29:13;;;;;;;0.10;0.10;;;;;;;8.76;100.00;99887.41;9896857;29;20086;-86
2023/01/12 10:34:15;;;;;;;0.13;0.10;;;;;;;8.81;100.00;99883.09;9912640;29;20211;-87
2023/01/12 10:39:51;;;;;;;0.10;0.10;;;;;;;8.84;100.00;99907.53;9922905;29;20227;-87
2023/01/12 10:45:19;;;;;;;0.03;0.03;;;;;;;8.88;100.00;99905.81;9913205;29;20054;-87
2023/01/12 10:50:27;;;;;;;0.10;0.10;;;;;;;8.91;100.00;99910.19;9922302;29;20046;-88
2023/01/12 10:55:32;;;;;;;0.10;0.10;;;;;;;8.99;100.00;99906.78;9914782;29;20078;-85
2023/01/12 11:00:35;;;;;;;0.20;0.20;;;;;;;9.02;100.00;99922.50;9907683;29;20800;-87
2023/01/12 11:05:37;;;;;;;0.60;0.30;;;;;;;9.07;100.00;99924.25;9921553;29;20111;-84
2023/01/12 11:10:39;;;;;;;0.20;0.10;;;;;;;9.04;99.90;99917.28;9933766;29;20066;-83
2023/01/12 11:15:58;;;;;;;2.03;0.70;;;;;;;9.06;100.00;99925.13;9939416;29;20051;-84
2023/01/12 11:21:07;;;;;;;0.20;0.20;;;;;;;9.17;99.95;99929.59;9920188;29;20090;-83
2023/01/12 11:26:22;;;;;;;0.17;0.17;;;;;;;9.28;100.00;99927.06;9923561;29;20055;-84
2023/01/12 11:31:31;;;;;;;0.13;0.13;;;;;;;9.38;100.00;99928.91;9950178;29;20065;-83
2023/01/12 11:36:40;;;;;;;0.17;0.17;;;;;;;9.50;100.00;99928.13;9939280;29;20094;-83
2023/01/12 11:47:14;;;;;;;0.10;0.10;;;;;;;9.67;100.00;99936.09;9908045;29;20051;-85
2023/01/12 11:52:19;;;;;;;0.80;0.30;;;;;;;9.68;100.00;99935.22;9926303;29;20138;-87
2023/01/12 11:57:46;;;;;;;1.35;0.30;;;;;;;9.68;100.00;99935.22;9911299;29;20613;-86
2023/01/12 12:03:05;;;;;;;1.17;1.05;;;;;;;9.81;99.77;99940.53;9899859;29;20043;-87
2023/01/12 12:08:50;;;;;;;1.77;1.00;;;;;;;9.90;99.63;99954.53;9925173;29;20099;-88
2023/01/12 12:14:15;;;;;;;2.13;0.75;;;;;;;9.91;99.33;99956.28;9937259;29;20062;-88
2023/01/12 12:19:57;;;;;;;0.40;0.25;;;;;;;10.01;99.05;99951.13;9923704;29;20058;-88
2023/01/12 12:51:06;;;;;;;;;;;;;;;;;;;;;
2023/01/12 13:17:21;;;;;;;0.40;0.40;;;;;;;10.48;95.06;99978.41;9828423;29;20088;-87
2023/01/12 13:22:49;;;;;;;0.73;0.35;;;;;;;10.43;94.84;99976.69;9856116;29;20047;-89
2023/01/12 13:27:59;;;;;;;0.08;0.08;;;;;;;10.37;95.08;99981.88;9915326;29;20496;-86
2023/01/12 13:33:13;;;;;;;2.15;0.68;;;;;;;10.34;95.25;99991.44;9948702;29;20051;-87
2023/01/12 13:38:21;;;;;;;1.08;0.73;;;;;;;10.35;95.37;99994.06;9961671;29;20046;-88
2023/01/12 13:43:36;;;;;;;4.18;0.45;;;;;;;10.33;95.43;100000.13;9943152;29;20055;-88
2023/01/12 13:48:54;;;;;;;0.65;0.40;;;;;;;10.26;95.47;99988.75;9952406;29;20165;-91
2023/01/12 13:54:34;;;;;;;1.45;0.38;;;;;;;10.21;95.69;100006.19;9937818;29;20047;-88
2023/01/12 14:00:41;;;;;;;1.90;0.50;;;;;;;10.13;95.79;100008.72;9921453;29;20058;-89
2023/01/12 14:06:13;;;;;;;0.38;0.38;;;;;;;10.08;96.21;100011.31;9919900;29;20555;-89
2023/01/12 14:11:42;;;;;;;2.47;0.30;;;;;;;9.98;96.53;100001.66;9945551;29;20051;-89
2023/01/12 14:23:28;;;;;;;1.15;0.90;;;;;;;9.91;97.12;100008.59;9937581;29;20478;-91
2023/01/12 14:28:50;;;;;;;0.80;0.32;;;;;;;9.94;97.29;100012.97;9939780;29;20086;-88
2023/01/12 14:33:55;;;;;;;0.47;0.30;;;;;;;9.98;97.38;100017.34;9926466;29;20050;-90
2023/01/12 14:39:12;;;;;;;0.20;0.20;;;;;;;9.96;97.65;100013.00;9927916;29;20182;-87
2023/01/12 15:30:28;;;;;;;1.40;0.40;;;;;;;9.43;99.07;99986.44;10078429;24;20065;-87
2023/01/12 15:35:34;;;;;;;0.40;0.40;;;;;;;9.36;99.11;99974.16;9932197;29;20430;-83
2023/01/12 15:40:36;;;;;;;1.35;0.43;;;;;;;9.29;99.21;99988.03;9950149;29;20058;-84
2023/01/12 15:45:41;;;;;;;0.10;0.10;;;;;;;9.23;99.66;99975.78;9928499;29;20042;-83
2023/01/12 15:50:44;;;;;;;0.70;0.32;;;;;;;9.20;99.82;99965.28;9931908;29;20471;-84
2023/01/12 15:55:47;;;;;;;0.25;0.20;;;;;;;9.20;99.86;99965.28;9928916;29;20051;-83
2023/01/12 16:00:49;;;;;;;0.20;0.20;;;;;;;9.18;100.00;99964.41;9924545;29;20061;-83
2023/01/12 16:05:51;;;;;;;0.43;0.25;;;;;;;9.17;100.00;99957.44;9930841;29;20127;-83
2023/01/12 16:11:08;;;;;;;0.13;0.13;;;;;;;9.12;100.00;99948.69;9949129;29;20059;-83
2023/01/12 16:16:14;;;;;;;0.20;0.20;;;;;;;9.11;100.00;99949.53;9946657;29;20104;-82
2023/01/12 16:21:18;;;;;;;0.05;0.05;;;;;;;9.11;100.00;99944.31;9957266;29;20250;-81
2023/01/12 16:26:20;;;;;;;0.30;0.30;;;;;;;9.15;100.00;99940.88;9941536;29;20053;-82
2023/01/12 16:31:21;;;;;;;0.43;0.40;;;;;;;9.17;100.00;99928.69;9948331;29;20088;-82
2023/01/12 16:36:23;;;;;;;0.50;0.30;;;;;;;9.19;100.00;99913.94;9946268;29;20054;-81
2023/01/12 16:41:24;;;;;;;0.63;0.40;;;;;;;9.20;100.00;99923.50;9941328;29;20051;-83
2023/01/12 16:46:26;;;;;;;0.65;0.50;;;;;;;9.18;100.00;99914.78;9930923;29;20406;-82
2023/01/12 16:51:28;;;;;;;0.65;0.52;;;;;;;9.15;100.00;99920.00;9947214;29;20472;-82
2023/01/12 16:56:29;;;;;;;0.30;0.30;;;;;;;9.10;100.00;99914.72;9943356;29;20432;-81
2023/01/12 17:01:32;;;;;;;0.13;0.13;;;;;;;9.09;100.00;99907.75;9946714;29;20111;-82
2023/01/12 17:06:37;;;;;;;0.60;0.43;;;;;;;9.08;100.00;99907.72;9941427;29;20051;-82
2023/01/12 17:11:40;;;;;;;0.82;0.70;;;;;;;9.11;100.00;99907.75;9950921;29;20066;-81
2023/01/12 17:16:42;;;;;;;0.45;0.40;;;;;;;9.10;100.00;99900.81;9956507;29;20070;-81
2023/01/12 17:21:46;;;;;;;0.70;0.43;;;;;;;9.11;100.00;99887.75;9954731;29;20057;-81
2023/01/12 17:26:52;;;;;;;0.68;0.60;;;;;;;9.10;100.00;99888.59;9941225;29;20059;-82
2023/01/12 17:31:54;;;;;;;1.27;0.70;;;;;;;9.10;100.00;99890.34;9947237;29;20067;-82
2023/01/12 17:37:01;;;;;;;0.85;0.30;;;;;;;9.10;100.00;99885.13;9949634;29;20238;-81
2023/01/12 17:47:23;;;;;;;0.45;0.45;;;;;;;9.05;100.00;99881.59;9944010;29;20075;-81
2023/01/12 17:52:25;;;;;;;1.58;0.63;;;;;;;9.06;100.00;99873.75;9949855;29;20055;-82
2023/01/12 17:57:27;;;;;;;0.20;0.20;;;;;;;9.09;100.00;99863.34;9935293;29;20043;-82
2023/01/12 18:02:28;;;;;;;0.45;0.35;;;;;;;9.10;100.00;99872.06;9932519;29;20086;-81
2023/01/12 18:07:30;;;;;;;0.98;0.70;;;;;;;9.12;100.00;99867.72;9946549;29;20042;-81
2023/01/12 18:12:32;;;;;;;1.40;1.10;;;;;;;9.14;100.00;99856.44;9951389;29;20054;-82
2023/01/12 18:17:34;;;;;;;0.40;0.40;;;;;;;9.15;100.00;99858.16;9940028;29;20051;-82
2023/01/12 18:22:35;;;;;;;0.73;0.32;;;;;;;9.17;100.00;99850.34;9927204;29;20059;-81
2023/01/12 18:27:37;;;;;;;0.20;0.20;;;;;;;9.23;100.00;99850.38;9953497;29;20059;-82
2023/01/12 18:32:38;;;;;;;0.60;0.45;;;;;;;9.23;100.00;99866.06;9940510;29;20543;-81
2023/01/12 18:37:40;;;;;;;0.77;0.43;;;;;;;9.22;100.00;99850.38;9952908;29;20456;-81
2023/01/12 18:42:51;;;;;;;0.32;0.30;;;;;;;9.21;100.00;99862.56;9938627;29;20153;-83
2023/01/12 18:53:30;;;;;;;;;;;;;;;9.19;100.00;99859.09;9932664;29;20090;-81
2023/01/12 18:58:33;;;;;;;0.28;0.28;;;;;;;9.18;100.00;99868.63;9912087;29;20754;-82
2023/01/12 19:03:35;;;;;;;0.20;0.20;;;;;;;9.17;100.00;99873.84;9914512;29;20083;-82
2023/01/12 19:19:21;;;;;;;0.73;0.55;;;;;;;9.08;100.00;99872.03;9941562;29;20082;-82
2023/01/12 19:29:44;;;;;;;0.50;0.50;;;;;;;9.09;100.00;99865.09;9948600;29;20051;-81
2023/01/12 19:34:45;;;;;;;0.35;0.35;;;;;;;9.12;100.00;99854.66;9950481;29;20054;-81
2023/01/12 19:39:56;;;;;;;0.40;0.40;;;;;;;9.14;100.00;99859.06;9922265;29;20132;-82
2023/01/12 19:45:05;;;;;;;0.30;0.30;;;;;;;9.12;100.00;99868.59;9943112;29;20051;-82
2023/01/12 19:50:09;;;;;;;1.13;0.55;;;;;;;9.18;100.00;99873.84;9927026;29;20059;-82
2023/01/12 19:55:13;;;;;;;1.83;1.42;;;;;;;9.23;100.00;99881.72;9936586;29;20058;-83
2023/01/12 20:00:15;;;;;;;0.28;0.28;;;;;;;9.18;100.00;99886.06;9916760;29;20539;-84
2023/01/12 20:05:21;;;;;;;0.93;0.60;;;;;;;9.13;100.00;99886.03;9927546;29;20468;-84
2023/01/12 20:10:23;;;;;;;1.00;0.60;;;;;;;9.16;100.00;99880.81;9921701;29;20205;-82
2023/01/12 20:15:25;;;;;;;0.55;0.40;;;;;;;9.12;100.00;99878.19;9940898;29;20054;-82
2023/01/12 20:20:27;;;;;;;0.32;0.32;;;;;;;9.09;99.81;99870.31;9933789;29;20516;-81
2023/01/12 20:25:28;;;;;;;0.20;0.20;;;;;;;9.08;100.00;99865.94;9948460;29;20173;-82
2023/01/12 20:30:30;;;;;;;0.35;0.35;;;;;;;9.03;100.00;99856.31;9955040;29;20293;-82
2023/01/12 20:35:44;;;;;;;0.45;0.35;;;;;;;9.07;100.00;99856.34;9945560;29;20059;-82
2023/01/12 20:40:46;;;;;;;0.52;0.43;;;;;;;9.07;100.00;99864.19;9947074;29;20059;-82
2023/01/12 20:45:48;;;;;;;0.30;0.30;;;;;;;9.06;100.00;99846.78;9953902;29;20122;-83
2023/01/12 20:50:49;;;;;;;0.68;0.60;;;;;;;9.12;100.00;99846.84;9946581;29;20086;-82
2023/01/12 20:55:51;;;;;;;0.47;0.40;;;;;;;9.14;100.00;99850.31;9934208;29;20134;-82
2023/01/12 21:00:53;;;;;;;0.52;0.50;;;;;;;9.13;100.00;99852.06;9959971;29;20145;-83
2023/01/12 21:05:54;;;;;;;0.98;0.70;;;;;;;9.18;100.00;99850.34;9936809;29;20055;-84
2023/01/12 21:10:57;;;;;;;1.17;1.02;;;;;;;9.22;100.00;99853.88;9932642;29;20066;-84
2023/01/12 21:16:01;;;;;;;0.40;0.40;;;;;;;9.22;100.00;99864.34;9943734;29;20508;-84
2023/01/12 21:21:04;;;;;;;0.85;0.52;;;;;;;9.25;100.00;99859.13;9924800;29;20516;-86
2023/01/12 21:26:06;;;;;;;0.55;0.50;;;;;;;9.25;100.00;99859.13;9925528;29;20459;-86
2023/01/12 21:31:11;;;;;;;0.43;0.43;;;;;;;9.25;100.00;99840.84;9921095;29;20046;-85
2023/01/12 21:36:13;;;;;;;0.35;0.32;;;;;;;9.28;100.00;99853.94;9919162;29;20047;-86
2023/01/12 21:41:25;;;;;;;0.57;0.47;;;;;;;9.31;100.00;99848.72;9932450;29;20059;-85
2023/01/12 21:46:30;;;;;;;0.63;0.40;;;;;;;9.33;99.96;99852.22;9920284;29;20127;-86
2023/01/12 21:51:34;;;;;;;0.10;0.10;;;;;;;9.34;99.81;99838.28;9912848;29;20059;-87
2023/01/12 21:56:36;;;;;;;0.30;0.30;;;;;;;9.33;99.76;99849.59;9921080;29;20055;-86
2023/01/12 22:01:40;;;;;;;0.50;0.50;;;;;;;9.33;99.69;99835.66;9913058;29;20061;-87
2023/01/12 22:06:55;;;;;;;0.75;0.47;;;;;;;9.34;99.55;99833.06;9921066;29;20047;-89
2023/01/12 22:12:08;;;;;;;1.13;0.85;;;;;;;9.33;99.53;99839.16;9915523;29;20198;-88
2023/01/12 22:17:22;;;;;;;0.20;0.20;;;;;;;9.35;99.57;99837.44;9903799;29;20108;-88
2023/01/12 22:22:27;;;;;;;1.15;0.77;;;;;;;9.33;99.46;99833.91;9927402;29;20107;-84
2023/01/12 22:27:30;;;;;;;0.75;0.60;;;;;;;9.28;99.44;99826.94;9959463;29;20461;-82
2023/01/12 22:32:31;;;;;;;0.98;0.47;;;;;;;9.25;99.30;99833.00;9929662;29;20059;-82
2023/01/12 22:37:35;;;;;;;1.27;0.73;;;;;;;9.20;99.53;99819.03;9931261;29;20061;-82
2023/01/12 22:47:57;;;;;;;0.35;0.32;;;;;;;8.97;99.45;99809.28;9935854;29;20082;-82
2023/01/12 22:52:59;;;;;;;0.30;0.25;;;;;;;8.93;99.43;99844.06;9921861;29;20048;-82
2023/01/12 22:58:00;;;;;;;0.30;0.30;;;;;;;8.76;99.63;99830.00;9937228;29;20133;-81
2023/01/12 23:03:06;;;;;;;0.10;0.10;;;;;;;8.66;99.69;99842.97;9965555;29;20141;-81
2023/01/12 23:08:08;;;;;;;0.10;0.10;;;;;;;8.57;99.53;99848.09;9943196;29;20046;-83
2023/01/12 23:13:16;;;;;;;0.03;0.03;;;;;;;8.52;99.56;99844.53;9936872;29;20069;-82
2023/01/12 23:18:21;;;;;;;0.20;0.20;;;;;;;8.55;99.66;99869.81;9923691;29;20070;-82
2023/01/12 23:23:22;;;;;;;0.10;0.10;;;;;;;8.61;99.63;99864.66;9957946;29;20097;-82
2023/01/12 23:28:24;;;;;;;0.20;0.20;;;;;;;8.53;99.40;99843.69;9934353;29;20078;-82
2023/01/12 23:33:25;;;;;;;0.17;0.13;;;;;;;8.43;98.91;99823.56;9945986;29;20047;-82
2023/01/12 23:38:27;;;;;;;0.20;0.20;;;;;;;8.31;98.29;99824.28;9955987;29;20487;-82
2023/01/12 23:43:32;;;;;;;0.10;0.10;;;;;;;8.18;98.04;99818.09;9924026;29;20488;-83
2023/01/12 23:48:34;;;;;;;0.10;0.10;;;;;;;8.06;97.46;99826.63;9954988;29;20075;-83
2023/01/12 23:53:36;;;;;;;0.13;0.13;;;;;;;8.08;97.00;99826.66;9920337;29;20078;-83
2023/01/12 23:58:38;;;;;;;0.10;0.10;;;;;;;8.02;96.79;99816.16;9929068;29;20610;-83
